createdAt,value
2023-05-07T00:00:16.849Z,101317.22
2023-05-07T00:02:46.118Z,101327.28
2023-05-07T00:05:14.799Z,101331.47
2023-05-07T00:07:43.899Z,101332.66
2023-05-07T00:10:14.259Z,101328.41
2023-05-07T00:12:42.927Z,101323.28
2023-05-07T00:15:12.270Z,101324.53
2023-05-07T00:17:40.863Z,101332.25
2023-05-07T00:20:09.811Z,101340.13
2023-05-07T00:22:41.789Z,101333.28
2023-05-07T00:25:11.541Z,101346.75
2023-05-07T00:27:39.744Z,101325.00
2023-05-07T00:30:08.785Z,101338.38
2023-05-07T00:32:38.343Z,101319.13
2023-05-07T00:35:10.002Z,101332.69
2023-05-07T00:37:38.781Z,101332.31
2023-05-07T00:40:09.126Z,101340.34
2023-05-07T00:42:38.053Z,101321.47
2023-05-07T00:45:06.343Z,101321.53
2023-05-07T00:47:35.199Z,101324.91
2023-05-07T00:50:03.846Z,101336.88
2023-05-07T00:52:36.197Z,101329.94
2023-05-07T00:55:07.357Z,101318.66
2023-05-07T00:57:39.710Z,101328.38
2023-05-07T01:00:10.371Z,101323.94
2023-05-07T01:02:40.099Z,101334.63
2023-05-07T01:05:11.256Z,101331.03
2023-05-07T01:07:41.470Z,101332.41
2023-05-07T01:10:11.154Z,101333.72
2023-05-07T01:12:40.685Z,101345.53
2023-05-07T01:15:10.385Z,101337.63
2023-05-07T01:17:41.527Z,101334.63
2023-05-07T01:20:16.072Z,101340.94
2023-05-07T01:22:45.124Z,101333.72
2023-05-07T01:25:13.946Z,101329.75
2023-05-07T01:27:42.469Z,101327.66
2023-05-07T01:30:11.087Z,101329.19
2023-05-07T01:32:41.930Z,101325.56
2023-05-07T01:35:14.127Z,101316.81
2023-05-07T01:37:42.747Z,101331.44
2023-05-07T01:40:11.634Z,101313.19
2023-05-07T01:42:40.332Z,101316.34
2023-05-07T01:45:09.418Z,101327.03
2023-05-07T01:47:39.112Z,101319.97
2023-05-07T01:50:09.811Z,101316.91
2023-05-07T01:52:42.230Z,101309.13
2023-05-07T01:55:11.121Z,101316.41
2023-05-07T01:57:39.771Z,101311.78
2023-05-07T02:00:10.121Z,101331.59
2023-05-07T02:02:39.964Z,101316.06
2023-05-07T02:05:09.598Z,101307.53
2023-05-07T02:07:38.742Z,101315.38
2023-05-07T02:10:08.017Z,101322.84
2023-05-07T02:12:36.662Z,101327.66
2023-05-07T02:15:08.917Z,101319.00
2023-05-07T02:17:41.934Z,101316.28
2023-05-07T02:20:15.012Z,101327.16
2023-05-07T02:22:45.442Z,101325.94
2023-05-07T02:25:16.548Z,101337.00
2023-05-07T02:27:44.488Z,101338.13
2023-05-07T02:30:13.108Z,101324.03
2023-05-07T02:32:41.450Z,101331.31
2023-05-07T02:35:11.109Z,101346.13
2023-05-07T02:37:39.242Z,101312.81
2023-05-07T02:40:08.695Z,101305.56
2023-05-07T02:42:37.400Z,101313.50
2023-05-07T02:45:06.287Z,101321.53
2023-05-07T02:47:34.576Z,101351.44
2023-05-07T02:50:04.943Z,101324.75
2023-05-07T02:52:33.428Z,101325.25
2023-05-07T02:55:01.355Z,101355.72
2023-05-07T02:57:29.891Z,101327.69
2023-05-07T02:59:59.907Z,101348.19
2023-05-07T03:02:27.850Z,101339.91
2023-05-07T03:04:56.092Z,101341.00
2023-05-07T03:07:24.263Z,101324.72
2023-05-07T03:09:52.299Z,101343.38
2023-05-07T03:12:20.335Z,101353.31
2023-05-07T03:14:51.082Z,101366.69
2023-05-07T03:17:19.190Z,101353.47
2023-05-07T03:19:47.417Z,101360.50
2023-05-07T03:22:16.100Z,101343.19
2023-05-07T03:24:44.145Z,101361.94
2023-05-07T03:27:12.225Z,101346.22
2023-05-07T03:29:40.206Z,101368.28
2023-05-07T03:32:08.579Z,101339.56
2023-05-07T03:34:36.772Z,101345.22
2023-05-07T03:37:05.038Z,101334.09
2023-05-07T03:39:35.282Z,101357.28
2023-05-07T03:42:03.810Z,101359.09
2023-05-07T03:44:32.033Z,101353.66
2023-05-07T03:47:00.303Z,101354.38
2023-05-07T03:49:28.366Z,101347.28
2023-05-07T03:51:57.267Z,101345.38
2023-05-07T03:54:32.028Z,101336.81
2023-05-07T03:57:00.440Z,101357.34
2023-05-07T03:59:28.632Z,101351.69
2023-05-07T04:01:56.870Z,101352.31
2023-05-07T04:04:25.109Z,101361.63
2023-05-07T04:06:54.649Z,101360.16
2023-05-07T04:09:23.401Z,101353.63
2023-05-07T04:11:51.672Z,101371.59
2023-05-07T04:14:19.691Z,101370.09
2023-05-07T04:16:47.776Z,101367.00
2023-05-07T04:19:16.031Z,101359.84
2023-05-07T04:21:44.751Z,101371.63
2023-05-07T04:24:13.244Z,101367.78
2023-05-07T04:26:41.654Z,101374.44
2023-05-07T04:29:09.950Z,101366.69
2023-05-07T04:31:40.174Z,101375.16
2023-05-07T04:34:10.357Z,101362.41
2023-05-07T04:36:41.028Z,101368.34
2023-05-07T04:39:09.112Z,101360.34
2023-05-07T04:41:40.244Z,101364.00
2023-05-07T04:44:08.308Z,101362.50
2023-05-07T04:46:36.409Z,101363.34
2023-05-07T04:49:04.678Z,101359.91
2023-05-07T04:51:38.017Z,101360.22
2023-05-07T04:54:06.169Z,101348.88
2023-05-07T04:56:35.008Z,101339.41
2023-05-07T04:59:03.224Z,101343.63
2023-05-07T05:01:32.128Z,101347.38
2023-05-07T05:04:01.858Z,101339.56
2023-05-07T05:06:30.499Z,101353.84
2023-05-07T05:08:58.581Z,101336.97
2023-05-07T05:11:28.834Z,101345.00
2023-05-07T05:13:57.142Z,101341.94
2023-05-07T05:16:25.722Z,101366.19
2023-05-07T05:18:55.589Z,101336.72
2023-05-07T05:21:23.727Z,101355.63
2023-05-07T05:23:51.988Z,101341.78
2023-05-07T05:26:20.551Z,101337.19
2023-05-07T05:28:48.873Z,101357.13
2023-05-07T05:31:18.193Z,101359.91
2023-05-07T05:33:46.378Z,101362.72
2023-05-07T05:36:14.507Z,101349.06
2023-05-07T05:38:42.656Z,101330.97
2023-05-07T05:41:11.157Z,101345.06
2023-05-07T05:43:39.387Z,101352.13
2023-05-07T05:46:07.688Z,101364.72
2023-05-07T05:48:36.325Z,101348.13
2023-05-07T05:51:05.384Z,101350.50
2023-05-07T05:53:33.462Z,101340.63
2023-05-07T05:56:06.290Z,101333.72
2023-05-07T05:58:34.620Z,101335.94
2023-05-07T06:01:04.041Z,101329.28
2023-05-07T06:03:33.883Z,101340.94
2023-05-07T06:06:02.151Z,101336.78
2023-05-07T06:08:33.302Z,101354.03
2023-05-07T06:11:02.876Z,101387.84
2023-05-07T06:13:31.037Z,101346.63
2023-05-07T06:15:59.351Z,101342.84
2023-05-07T06:18:27.513Z,101340.84
2023-05-07T06:20:55.594Z,101339.22
2023-05-07T06:23:23.502Z,101372.28
2023-05-07T06:25:53.094Z,101327.13
2023-05-07T06:28:21.378Z,101322.66
2023-05-07T06:30:51.120Z,101326.59
2023-05-07T06:33:18.776Z,101320.91
2023-05-07T06:35:47.105Z,101374.38
2023-05-07T06:38:15.210Z,101328.78
2023-05-07T06:40:43.411Z,101354.75
2023-05-07T06:43:12.312Z,101339.63
2023-05-07T06:45:40.215Z,101324.94
2023-05-07T06:48:08.330Z,101321.13
2023-05-07T06:50:36.362Z,101343.50
2023-05-07T06:53:04.795Z,101326.75
2023-05-07T06:55:34.027Z,101351.63
2023-05-07T06:58:02.379Z,101347.69
2023-05-07T07:00:30.833Z,101351.66
2023-05-07T07:03:02.209Z,101367.81
2023-05-07T07:05:30.726Z,101355.66
2023-05-07T07:07:58.675Z,101352.09
2023-05-07T07:10:27.703Z,101339.28
2023-05-07T07:12:58.623Z,101330.44
2023-05-07T07:15:28.032Z,101335.94
2023-05-07T07:17:56.267Z,101327.41
2023-05-07T07:20:24.799Z,101330.94
2023-05-07T07:22:53.576Z,101331.28
2023-05-07T07:25:22.066Z,101331.16
2023-05-07T07:27:50.994Z,101342.75
2023-05-07T07:30:19.449Z,101326.31
2023-05-07T07:32:47.625Z,101333.22
2023-05-07T07:35:15.680Z,101317.72
2023-05-07T07:37:46.054Z,101311.75
2023-05-07T07:40:14.500Z,101300.59
2023-05-07T07:42:42.492Z,101317.84
2023-05-07T07:45:12.140Z,101313.94
2023-05-07T07:47:42.150Z,101298.56
2023-05-07T07:50:11.094Z,101301.44
2023-05-07T07:52:39.514Z,101299.72
2023-05-07T07:55:08.291Z,101305.56
2023-05-07T07:57:37.135Z,101296.66
2023-05-07T08:00:08.758Z,101298.19
2023-05-07T08:02:37.320Z,101326.00
2023-05-07T08:05:05.740Z,101304.94
2023-05-07T08:07:33.732Z,101313.44
2023-05-07T08:10:01.675Z,101302.84
2023-05-07T08:12:29.738Z,101322.19
2023-05-07T08:14:57.754Z,101312.84
2023-05-07T08:17:26.343Z,101302.59
2023-05-07T08:19:54.861Z,101317.25
2023-05-07T08:22:24.930Z,101317.00
2023-05-07T08:24:54.707Z,101278.38
2023-05-07T08:27:22.614Z,101291.94
2023-05-07T08:29:51.145Z,101285.03
2023-05-07T08:32:19.085Z,101293.25
2023-05-07T08:34:47.455Z,101282.41
2023-05-07T08:37:15.467Z,101277.44
2023-05-07T08:39:43.695Z,101270.78
2023-05-07T08:42:12.922Z,101271.97
2023-05-07T08:44:48.215Z,101319.81
2023-05-07T08:47:16.481Z,101282.31
2023-05-07T08:49:44.391Z,101293.38
2023-05-07T08:52:18.296Z,101273.44
2023-05-07T08:54:46.531Z,101283.50
2023-05-07T08:57:14.496Z,101278.31
2023-05-07T08:59:46.200Z,101275.00
2023-05-07T09:02:14.474Z,101271.41
2023-05-07T09:04:42.740Z,101284.66
2023-05-07T09:07:11.342Z,101259.19
2023-05-07T09:09:39.590Z,101260.59
2023-05-07T09:12:07.998Z,101269.94
2023-05-07T09:14:40.353Z,101262.78
2023-05-07T09:17:09.491Z,101280.63
2023-05-07T09:19:38.522Z,101257.09
2023-05-07T09:22:10.515Z,101262.28
2023-05-07T09:24:39.204Z,101257.78
2023-05-07T09:27:08.140Z,101251.13
2023-05-07T09:29:37.123Z,101271.03
2023-05-07T09:32:07.192Z,101259.31
2023-05-07T09:34:36.245Z,101262.19
2023-05-07T09:37:05.350Z,101259.47
2023-05-07T09:39:50.441Z,101263.44
2023-05-07T09:42:24.838Z,101240.09
2023-05-07T09:44:52.933Z,101241.00
2023-05-07T09:47:23.039Z,101274.75
2023-05-07T09:49:51.624Z,101248.94
2023-05-07T09:52:19.891Z,101264.63
2023-05-07T09:54:48.644Z,101253.66
2023-05-07T09:57:17.300Z,101271.78
2023-05-07T09:59:45.563Z,101256.53
2023-05-07T10:02:15.091Z,101250.75
2023-05-07T10:04:43.510Z,101252.94
2023-05-07T10:07:11.646Z,101265.22
2023-05-07T10:09:40.828Z,101241.00
2023-05-07T10:12:09.344Z,101237.78
2023-05-07T10:14:38.025Z,101234.41
2023-05-07T10:17:06.677Z,101244.53
2023-05-07T10:19:35.953Z,101244.53
2023-05-07T10:22:07.494Z,101231.44
2023-05-07T10:24:38.109Z,101254.25
2023-05-07T10:27:11.665Z,101237.66
2023-05-07T10:29:58.830Z,101230.78
2023-05-07T10:32:44.167Z,101252.22
2023-05-07T10:35:17.750Z,101236.09
2023-05-07T10:37:46.714Z,101252.97
2023-05-07T10:40:15.175Z,101231.13
2023-05-07T10:43:06.440Z,101235.72
2023-05-07T10:45:36.694Z,101229.66
2023-05-07T10:50:49.694Z,101232.72
2023-05-07T10:53:19.275Z,101246.41
2023-05-07T10:55:52.206Z,101245.28
2023-05-07T10:58:31.483Z,101253.00
2023-05-07T11:01:02.326Z,101254.69
2023-05-07T11:03:31.200Z,101234.72
2023-05-07T11:06:16.303Z,101243.19
2023-05-07T11:08:54.154Z,101232.19
2023-05-07T11:11:49.060Z,101224.41
2023-05-07T11:14:43.676Z,101230.63
2023-05-07T11:17:11.940Z,101203.19
2023-05-07T11:19:54.085Z,101220.00
2023-05-07T11:22:34.450Z,101197.84
2023-05-07T11:25:07.235Z,101209.19
2023-05-07T11:27:37.180Z,101200.56
2023-05-07T11:30:06.041Z,101185.16
2023-05-07T11:32:34.515Z,101191.44
2023-05-07T11:35:02.710Z,101196.56
2023-05-07T11:37:31.639Z,101183.41
2023-05-07T11:40:08.024Z,101175.16
2023-05-07T11:42:38.879Z,101167.59
2023-05-07T11:45:09.162Z,101194.88
2023-05-07T11:47:38.059Z,101168.44
2023-05-07T11:50:08.821Z,101160.69
2023-05-07T11:52:37.605Z,101150.41
2023-05-07T11:55:06.390Z,101166.28
2023-05-07T11:57:34.875Z,101148.13
2023-05-07T12:00:05.301Z,101165.13
2023-05-07T12:02:34.309Z,101146.28
2023-05-07T12:05:03.945Z,101150.25
2023-05-07T12:07:33.274Z,101135.69
2023-05-07T12:10:06.582Z,101145.84
2023-05-07T12:12:47.907Z,101131.53
2023-05-07T12:15:19.627Z,101125.34
2023-05-07T12:17:48.101Z,101156.72
2023-05-07T12:20:16.350Z,101147.28
2023-05-07T12:22:44.645Z,101131.38
2023-05-07T12:25:21.185Z,101133.66
2023-05-07T12:27:54.126Z,101136.78
2023-05-07T12:30:22.296Z,101147.53
2023-05-07T12:32:54.930Z,101149.13
2023-05-07T12:35:34.092Z,101143.13
2023-05-07T12:38:05.791Z,101138.97
2023-05-07T12:40:52.529Z,101123.09
2023-05-07T12:43:28.079Z,101120.94
2023-05-07T12:45:58.509Z,101114.81
2023-05-07T12:48:28.513Z,101111.81
2023-05-07T12:50:58.184Z,101118.97
2023-05-07T12:53:28.256Z,101110.66
2023-05-07T12:55:59.092Z,101117.38
2023-05-07T12:58:29.474Z,101104.38
2023-05-07T13:01:02.414Z,101113.22
2023-05-07T13:03:33.345Z,101120.53
2023-05-07T13:06:04.098Z,101116.53
2023-05-07T13:08:41.718Z,101126.66
2023-05-07T13:11:11.944Z,101126.66
2023-05-07T13:13:42.007Z,101114.78
2023-05-07T13:16:12.480Z,101132.41
2023-05-07T13:18:42.442Z,101112.38
2023-05-07T13:21:11.478Z,101098.78
2023-05-07T13:23:39.949Z,101107.25
2023-05-07T13:26:24.876Z,101112.94
2023-05-07T13:28:56.301Z,101117.38
2023-05-07T13:31:25.504Z,101116.59
2023-05-07T13:33:54.157Z,101111.59
2023-05-07T13:36:22.966Z,101111.00
2023-05-07T13:38:53.111Z,101117.03
2023-05-07T13:41:21.867Z,101113.72
2023-05-07T13:43:50.220Z,101122.88
2023-05-07T13:46:18.781Z,101119.16
2023-05-07T13:48:47.012Z,101111.72
2023-05-07T13:51:15.019Z,101118.34
2023-05-07T13:53:50.069Z,101116.53
2023-05-07T13:56:19.971Z,101104.50
2023-05-07T13:58:59.564Z,101116.53
2023-05-07T14:01:32.423Z,101113.38
2023-05-07T14:04:01.021Z,101115.22
2023-05-07T14:06:29.432Z,101125.97
2023-05-07T14:08:59.506Z,101123.66
2023-05-07T14:11:27.740Z,101115.50
2023-05-07T14:13:58.255Z,101138.81
2023-05-07T14:16:26.816Z,101108.06
2023-05-07T14:18:57.979Z,101115.22
2023-05-07T14:21:29.740Z,101114.66
2023-05-07T14:23:57.981Z,101121.22
2023-05-07T14:26:28.453Z,101116.09
2023-05-07T14:28:59.525Z,101129.97
2023-05-07T14:31:27.885Z,101103.22
2023-05-07T14:33:56.162Z,101108.09
2023-05-07T14:36:27.654Z,101109.09
2023-05-07T14:38:56.476Z,101115.09
2023-05-07T14:41:27.547Z,101128.38
2023-05-07T14:43:57.121Z,101127.84
2023-05-07T14:46:27.356Z,101123.84
2023-05-07T14:48:55.533Z,101122.94
2023-05-07T14:51:23.596Z,101119.06
2023-05-07T14:53:53.054Z,101113.78
2023-05-07T14:56:22.877Z,101129.34
2023-05-07T14:58:51.159Z,101131.38
2023-05-07T15:01:19.648Z,101149.97
2023-05-07T15:03:48.133Z,101124.50
2023-05-07T15:06:16.558Z,101123.97
2023-05-07T15:08:44.774Z,101119.50
2023-05-07T15:11:13.246Z,101119.66
2023-05-07T15:13:41.269Z,101129.50
2023-05-07T15:16:09.167Z,101128.38
2023-05-07T15:18:38.822Z,101138.66
2023-05-07T15:21:07.696Z,101125.88
2023-05-07T15:23:37.477Z,101126.38
2023-05-07T15:26:07.168Z,101117.38
2023-05-07T15:28:35.849Z,101134.75
2023-05-07T15:31:04.034Z,101116.69
2023-05-07T15:33:32.196Z,101124.00
2023-05-07T15:36:00.509Z,101168.69
2023-05-07T15:38:28.491Z,101116.84
2023-05-07T15:40:57.304Z,101126.28
2023-05-07T15:43:26.702Z,101131.13
2023-05-07T15:45:55.310Z,101127.53
2023-05-07T15:48:23.486Z,101144.09
2023-05-07T15:50:51.778Z,101149.38
2023-05-07T15:53:20.509Z,101133.50
2023-05-07T15:55:49.588Z,101139.41
2023-05-07T15:58:23.003Z,101129.34
2023-05-07T16:00:51.229Z,101136.44
2023-05-07T16:03:19.919Z,101140.44
2023-05-07T16:05:48.194Z,101144.69
2023-05-07T16:08:16.640Z,101149.53
2023-05-07T16:10:45.974Z,101145.22
2023-05-07T16:13:14.568Z,101154.91
2023-05-07T16:15:42.955Z,101139.38
2023-05-07T16:18:12.750Z,101131.09
2023-05-07T16:20:41.250Z,101147.91
2023-05-07T16:23:10.443Z,101151.63
2023-05-07T16:25:39.006Z,101147.88
2023-05-07T16:28:08.298Z,101161.38
2023-05-07T16:30:37.435Z,101171.78
2023-05-07T16:33:06.042Z,101162.44
2023-05-07T16:35:34.206Z,101165.34
2023-05-07T16:38:02.371Z,101173.00
2023-05-07T16:40:30.764Z,101166.34
2023-05-07T16:42:58.788Z,101172.91
2023-05-07T16:45:26.991Z,101156.69
2023-05-07T16:47:57.187Z,101184.00
2023-05-07T16:50:25.327Z,101167.78
2023-05-07T16:53:09.925Z,101175.69
2023-05-07T16:55:41.915Z,101163.97
2023-05-07T16:58:11.808Z,101182.69
2023-05-07T17:00:49.839Z,101186.00
2023-05-07T17:03:19.853Z,101181.81
2023-05-07T17:05:48.464Z,101191.16
2023-05-07T17:08:17.234Z,101188.91
2023-05-07T17:10:46.930Z,101196.78
2023-05-07T17:13:17.931Z,101189.91
2023-05-07T17:15:48.318Z,101195.19
2023-05-07T17:18:17.378Z,101190.41
2023-05-07T17:20:45.690Z,101201.44
2023-05-07T17:23:14.410Z,101202.66
2023-05-07T17:25:45.837Z,101184.88
2023-05-07T17:28:14.654Z,101209.56
2023-05-07T17:30:43.058Z,101206.09
2023-05-07T17:33:20.844Z,101183.50
2023-05-07T17:35:50.792Z,101194.31
2023-05-07T17:38:18.982Z,101199.06
2023-05-07T17:40:47.131Z,101194.66
2023-05-07T17:43:16.052Z,101197.19
2023-05-07T17:45:44.349Z,101201.00
2023-05-07T17:48:13.504Z,101201.38
2023-05-07T17:50:41.969Z,101213.03
2023-05-07T17:53:10.286Z,101207.47
2023-05-07T17:55:45.423Z,101211.38
2023-05-07T17:58:13.708Z,101226.00
2023-05-07T18:00:42.010Z,101213.47
2023-05-07T18:03:10.485Z,101209.50
2023-05-07T18:05:40.010Z,101223.00
2023-05-07T18:08:08.424Z,101215.97
2023-05-07T18:10:36.729Z,101215.59
2023-05-07T18:13:05.162Z,101199.50
2023-05-07T18:15:33.702Z,101222.31
2023-05-07T18:18:01.608Z,101219.81
2023-05-07T18:20:32.660Z,101208.81
2023-05-07T18:23:01.249Z,101226.66
2023-05-07T18:25:33.313Z,101223.66
2023-05-07T18:28:01.663Z,101224.13
2023-05-07T18:30:30.949Z,101221.88
2023-05-07T18:32:59.450Z,101223.28
2023-05-07T18:35:27.650Z,101226.09
2023-05-07T18:37:55.948Z,101222.66
2023-05-07T18:40:24.144Z,101213.28
2023-05-07T18:42:53.584Z,101224.84
2023-05-07T18:45:22.187Z,101229.72
2023-05-07T18:47:50.348Z,101222.72
2023-05-07T18:50:21.438Z,101214.22
2023-05-07T18:52:49.568Z,101215.94
2023-05-07T18:55:17.876Z,101208.28
2023-05-07T18:57:46.283Z,101205.81
2023-05-07T19:00:15.340Z,101204.75
2023-05-07T19:02:44.183Z,101209.69
2023-05-07T19:05:13.516Z,101207.66
2023-05-07T19:07:41.931Z,101227.94
2023-05-07T19:10:10.344Z,101212.84
2023-05-07T19:12:38.900Z,101217.03
2023-05-07T19:15:08.035Z,101224.25
2023-05-07T19:17:41.832Z,101216.94
2023-05-07T19:20:10.971Z,101211.63
2023-05-07T19:22:41.793Z,101216.28
2023-05-07T19:25:13.354Z,101222.00
2023-05-07T19:27:44.807Z,101209.81
2023-05-07T19:30:13.012Z,101214.66
2023-05-07T19:32:44.257Z,101213.25
2023-05-07T19:35:17.356Z,101221.47
2023-05-07T19:37:46.171Z,101220.78
2023-05-07T19:40:15.081Z,101215.69
2023-05-07T19:42:43.285Z,101220.13
2023-05-07T19:45:12.341Z,101225.38
2023-05-07T19:47:41.609Z,101225.72
2023-05-07T19:50:10.310Z,101221.84
2023-05-07T19:52:38.713Z,101222.69
2023-05-07T19:55:07.261Z,101220.56
2023-05-07T19:57:37.809Z,101226.88
2023-05-07T20:00:07.722Z,101225.16
2023-05-07T20:02:37.331Z,101224.63
2023-05-07T20:05:05.690Z,101239.59
2023-05-07T20:07:34.097Z,101229.56
2023-05-07T20:10:02.280Z,101231.41
2023-05-07T20:12:31.087Z,101231.00
2023-05-07T20:14:59.391Z,101237.97
2023-05-07T20:17:27.566Z,101237.78
2023-05-07T20:19:55.812Z,101237.66
2023-05-07T20:22:24.176Z,101228.91
2023-05-07T20:24:52.650Z,101228.84
2023-05-07T20:27:35.752Z,101236.38
2023-05-07T20:30:15.068Z,101234.94
2023-05-07T20:32:43.720Z,101235.81
2023-05-07T20:35:13.009Z,101247.97
2023-05-07T20:37:41.452Z,101250.88
2023-05-07T20:40:09.970Z,101251.84
2023-05-07T20:42:38.627Z,101253.56
2023-05-07T20:45:08.436Z,101247.50
2023-05-07T20:47:37.663Z,101246.53
2023-05-07T20:50:06.514Z,101250.41
2023-05-07T20:52:36.028Z,101247.31
2023-05-07T20:55:04.309Z,101250.66
2023-05-07T20:57:32.716Z,101251.59
2023-05-07T21:00:01.215Z,101261.41
2023-05-07T21:02:32.424Z,101264.84
2023-05-07T21:05:00.466Z,101256.69
2023-05-07T21:07:28.763Z,101267.34
2023-05-07T21:09:56.831Z,101261.09
2023-05-07T21:12:24.960Z,101268.31
2023-05-07T21:14:52.897Z,101273.22
2023-05-07T21:17:21.399Z,101274.00
2023-05-07T21:19:50.487Z,101265.34
2023-05-07T21:22:18.632Z,101275.13
2023-05-07T21:24:46.918Z,101274.03
2023-05-07T21:27:15.381Z,101278.88
2023-05-07T21:29:43.731Z,101283.09
2023-05-07T21:32:11.763Z,101284.94
2023-05-07T21:34:40.093Z,101291.28
2023-05-07T21:37:08.426Z,101285.16
2023-05-07T21:39:36.530Z,101288.69
2023-05-07T21:42:04.842Z,101283.31
2023-05-07T21:44:33.359Z,101284.78
2023-05-07T21:47:01.832Z,101293.59
2023-05-07T21:49:31.259Z,101292.28
2023-05-07T21:52:02.370Z,101306.13
2023-05-07T21:54:30.634Z,101302.69
2023-05-07T21:56:58.926Z,101303.53
2023-05-07T21:59:26.995Z,101313.16
2023-05-07T22:01:55.196Z,101304.47
2023-05-07T22:04:23.499Z,101306.22
2023-05-07T22:06:51.771Z,101309.78
2023-05-07T22:09:20.393Z,101324.28
2023-05-07T22:11:48.745Z,101308.53
2023-05-07T22:14:18.989Z,101308.44
2023-05-07T22:16:47.671Z,101314.88
2023-05-07T22:19:15.990Z,101306.41
2023-05-07T22:21:44.205Z,101310.38
2023-05-07T22:24:13.068Z,101314.97
2023-05-07T22:26:43.010Z,101314.22
2023-05-07T22:29:11.751Z,101309.69
2023-05-07T22:31:42.933Z,101316.13
2023-05-07T22:34:11.035Z,101306.81
2023-05-07T22:36:39.066Z,101311.41
2023-05-07T22:39:10.098Z,101300.66
2023-05-07T22:41:38.179Z,101305.19
2023-05-07T22:44:09.198Z,101305.84
2023-05-07T22:46:37.360Z,101303.47
2023-05-07T22:49:06.133Z,101315.38
2023-05-07T22:51:34.231Z,101311.91
2023-05-07T22:54:03.472Z,101310.34
2023-05-07T22:56:32.302Z,101294.59
2023-05-07T22:59:00.171Z,101302.59
2023-05-07T23:01:28.260Z,101310.06
2023-05-07T23:03:56.424Z,101309.69
2023-05-07T23:06:25.234Z,101317.66
2023-05-07T23:08:54.159Z,101308.91
2023-05-07T23:11:22.735Z,101310.75
2023-05-07T23:13:51.718Z,101307.06
2023-05-07T23:16:20.362Z,101317.66
2023-05-07T23:18:48.875Z,101323.03
2023-05-07T23:21:17.100Z,101313.25
2023-05-07T23:23:45.201Z,101304.50
2023-05-07T23:26:14.243Z,101305.75
2023-05-07T23:28:42.569Z,101299.72
2023-05-07T23:31:15.511Z,101300.66
2023-05-07T23:33:43.750Z,101299.72
2023-05-07T23:36:11.715Z,101295.28
2023-05-07T23:38:42.406Z,101307.59
2023-05-07T23:41:10.383Z,101307.59
2023-05-07T23:43:38.180Z,101308.75
2023-05-07T23:46:06.437Z,101293.66
2023-05-07T23:48:35.196Z,101312.38
2023-05-07T23:51:03.645Z,101300.56
2023-05-07T23:53:31.891Z,101312.38
2023-05-07T23:55:59.875Z,101301.59
2023-05-07T23:58:28.547Z,101303.44
